createdAt,value
2023-03-03T00:01:20.711Z,13.82
2023-03-03T00:03:48.822Z,13.68
2023-03-03T00:06:16.821Z,14.77
2023-03-03T00:08:47.120Z,19.45
2023-03-03T00:11:15.510Z,11.45
2023-03-03T00:13:47.132Z,15.00
2023-03-03T00:16:26.401Z,16.73
2023-03-03T00:18:59.652Z,13.88
2023-03-03T00:21:32.085Z,19.25
2023-03-03T00:24:27.589Z,11.77
2023-03-03T00:26:57.215Z,18.27
2023-03-03T00:29:30.731Z,26.58
2023-03-03T00:32:23.972Z,19.98
2023-03-03T00:34:53.855Z,20.45
2023-03-03T00:37:30.824Z,14.98
2023-03-03T00:40:19.795Z,21.60
2023-03-03T00:42:52.208Z,11.90
2023-03-03T00:45:30.114Z,22.08
2023-03-03T00:48:00.187Z,15.90
2023-03-03T00:50:33.488Z,16.08
2023-03-03T00:53:07.238Z,14.73
2023-03-03T00:55:36.891Z,21.35
2023-03-03T00:58:05.644Z,13.70
2023-03-03T01:00:38.579Z,13.50
2023-03-03T01:03:11.936Z,15.30
2023-03-03T01:05:39.936Z,22.05
2023-03-03T01:08:08.036Z,19.45
2023-03-03T01:10:40.074Z,13.20
2023-03-03T01:13:09.498Z,17.15
2023-03-03T01:15:42.689Z,15.77
2023-03-03T01:18:13.158Z,11.98
2023-03-03T01:20:41.480Z,21.83
2023-03-03T01:23:09.765Z,13.63
2023-03-03T01:25:39.721Z,12.20
2023-03-03T01:28:08.083Z,12.70
2023-03-03T01:30:36.580Z,12.07
2023-03-03T01:33:04.786Z,13.88
2023-03-03T01:35:36.482Z,21.08
2023-03-03T01:38:04.871Z,16.08
2023-03-03T01:40:33.363Z,19.05
2023-03-03T01:43:02.019Z,19.67
2023-03-03T01:45:31.398Z,19.40
2023-03-03T01:48:04.275Z,18.17
2023-03-03T01:50:40.066Z,15.93
2023-03-03T01:53:15.832Z,18.63
2023-03-03T01:55:46.095Z,14.55
2023-03-03T01:58:19.572Z,18.38
2023-03-03T02:00:51.949Z,17.33
2023-03-03T02:03:23.388Z,16.73
2023-03-03T02:05:56.279Z,15.57
2023-03-03T02:08:43.732Z,17.35
2023-03-03T02:11:12.357Z,15.05
2023-03-03T02:13:40.276Z,18.40
2023-03-03T02:16:10.881Z,17.80
2023-03-03T02:18:39.614Z,21.98
2023-03-03T02:21:12.197Z,18.33
2023-03-03T02:23:48.256Z,16.95
2023-03-03T02:26:20.531Z,22.45
2023-03-03T02:28:48.665Z,30.20
2023-03-03T02:31:20.907Z,22.25
2023-03-03T02:33:51.005Z,27.73
2023-03-03T02:36:21.007Z,31.17
2023-03-03T02:38:54.722Z,31.77
2023-03-03T02:41:31.542Z,44.38
2023-03-03T02:44:02.870Z,37.30
2023-03-03T02:46:35.988Z,24.60
2023-03-03T02:49:05.268Z,34.53
2023-03-03T02:51:33.411Z,37.72
2023-03-03T02:54:02.040Z,36.08
2023-03-03T02:56:33.946Z,50.05
2023-03-03T02:59:02.711Z,30.50
2023-03-03T03:01:37.110Z,39.00
2023-03-03T03:04:11.207Z,31.60
2023-03-03T03:06:44.255Z,42.20
2023-03-03T03:09:14.897Z,39.47
2023-03-03T03:11:44.912Z,40.90
2023-03-03T03:14:15.746Z,40.20
2023-03-03T03:16:45.062Z,42.30
2023-03-03T03:19:13.244Z,45.20
2023-03-03T03:21:42.268Z,30.70
2023-03-03T03:24:11.692Z,48.92
2023-03-03T03:26:45.233Z,42.80
2023-03-03T03:29:14.404Z,41.50
2023-03-03T03:31:43.801Z,51.83
2023-03-03T03:34:11.857Z,36.65
2023-03-03T03:36:40.224Z,40.40
2023-03-03T03:39:09.040Z,25.42
2023-03-03T03:41:41.172Z,50.75
2023-03-03T03:44:10.446Z,33.03
2023-03-03T03:46:39.034Z,40.95
2023-03-03T03:49:07.822Z,56.97
2023-03-03T03:51:38.193Z,35.00
2023-03-03T03:54:06.559Z,41.13
2023-03-03T03:56:37.034Z,38.15
2023-03-03T03:59:07.533Z,35.63
2023-03-03T04:01:37.107Z,35.83
2023-03-03T04:04:05.477Z,55.80
2023-03-03T04:06:33.984Z,38.08
2023-03-03T04:09:03.046Z,35.85
2023-03-03T04:11:31.910Z,45.83
2023-03-03T04:14:00.006Z,48.55
2023-03-03T04:16:28.862Z,40.72
2023-03-03T04:18:58.497Z,46.65
2023-03-03T04:21:27.887Z,51.78
2023-03-03T04:23:58.616Z,58.50
2023-03-03T04:26:27.966Z,49.35
2023-03-03T04:28:56.044Z,48.70
2023-03-03T04:31:25.667Z,46.15
2023-03-03T04:33:54.433Z,45.35
2023-03-03T04:36:25.165Z,49.90
2023-03-03T04:38:53.331Z,39.92
2023-03-03T04:41:21.786Z,43.38
2023-03-03T04:43:49.721Z,58.67
2023-03-03T04:46:18.493Z,85.30
2023-03-03T04:48:46.595Z,67.03
2023-03-03T04:51:16.665Z,52.75
2023-03-03T04:53:47.355Z,53.80
2023-03-03T04:56:15.450Z,44.70
2023-03-03T04:58:43.564Z,56.40
2023-03-03T05:01:14.216Z,52.42
2023-03-03T05:03:42.837Z,64.47
2023-03-03T05:06:10.862Z,47.58
2023-03-03T05:08:38.873Z,59.72
2023-03-03T05:11:08.075Z,66.13
2023-03-03T05:13:36.356Z,60.38
2023-03-03T05:16:04.774Z,61.13
2023-03-03T05:18:32.853Z,61.30
2023-03-03T05:21:00.794Z,67.55
2023-03-03T05:23:29.043Z,56.42
2023-03-03T05:25:57.216Z,65.40
2023-03-03T05:28:26.630Z,53.60
2023-03-03T05:30:54.537Z,66.95
2023-03-03T05:33:22.632Z,54.70
2023-03-03T05:35:55.241Z,58.78
2023-03-03T05:38:23.322Z,57.08
2023-03-03T05:40:51.485Z,65.55
2023-03-03T05:43:19.857Z,68.90
2023-03-03T05:45:49.203Z,60.00
2023-03-03T05:48:17.215Z,72.47
2023-03-03T05:50:45.103Z,61.83
2023-03-03T05:53:13.282Z,80.45
2023-03-03T05:55:41.347Z,73.38
2023-03-03T05:58:09.339Z,77.35
2023-03-03T06:00:37.217Z,88.28
2023-03-03T06:03:06.515Z,60.88
2023-03-03T06:05:34.550Z,88.43
2023-03-03T06:08:02.461Z,69.03
2023-03-03T06:10:30.387Z,68.15
2023-03-03T06:13:00.880Z,80.72
2023-03-03T06:15:28.893Z,68.43
2023-03-03T06:17:56.833Z,81.70
2023-03-03T06:20:26.172Z,75.25
2023-03-03T06:22:54.186Z,74.88
2023-03-03T06:25:22.339Z,71.38
2023-03-03T06:27:50.318Z,53.60
2023-03-03T06:30:19.915Z,70.78
2023-03-03T06:32:47.973Z,82.65
2023-03-03T06:35:16.081Z,76.07
2023-03-03T06:37:45.348Z,63.58
2023-03-03T06:40:14.100Z,71.22
2023-03-03T06:42:42.004Z,80.80
2023-03-03T06:45:10.833Z,80.25
2023-03-03T06:47:38.706Z,64.18
2023-03-03T06:50:11.028Z,69.53
2023-03-03T06:52:39.195Z,55.85
2023-03-03T06:55:15.421Z,99.15
2023-03-03T06:57:43.371Z,71.35
2023-03-03T07:00:20.122Z,109.40
2023-03-03T07:02:48.575Z,79.07
2023-03-03T07:05:19.216Z,70.60
2023-03-03T07:07:47.150Z,110.57
2023-03-03T07:10:24.380Z,60.15
2023-03-03T07:12:52.286Z,75.90
2023-03-03T07:15:24.303Z,71.35
2023-03-03T07:17:58.139Z,89.03
2023-03-03T07:20:31.159Z,59.63
2023-03-03T07:22:59.626Z,61.78
2023-03-03T07:25:33.228Z,61.63
2023-03-03T07:28:12.123Z,53.28
2023-03-03T07:30:40.135Z,59.08
2023-03-03T07:33:19.356Z,58.05
2023-03-03T07:35:48.213Z,68.75
2023-03-03T07:38:27.696Z,65.70
2023-03-03T07:40:59.115Z,72.78
2023-03-03T07:43:32.455Z,63.45
2023-03-03T07:46:12.167Z,72.30
2023-03-03T07:48:42.196Z,76.35
2023-03-03T07:51:17.211Z,64.43
2023-03-03T07:53:45.199Z,65.25
2023-03-03T07:56:21.965Z,68.05
2023-03-03T07:58:49.907Z,67.95
2023-03-03T08:01:40.752Z,65.85
2023-03-03T08:04:21.750Z,64.55
2023-03-03T08:06:52.122Z,52.63
2023-03-03T08:09:36.351Z,62.70
2023-03-03T08:12:21.327Z,71.80
2023-03-03T08:14:52.589Z,70.75
2023-03-03T08:17:22.936Z,66.80
2023-03-03T08:19:52.569Z,82.18
2023-03-03T08:22:26.071Z,71.13
2023-03-03T08:24:54.062Z,65.30
2023-03-03T08:27:23.763Z,95.70
2023-03-03T08:29:51.766Z,68.47
2023-03-03T08:32:20.165Z,74.82
2023-03-03T08:34:48.301Z,60.95
2023-03-03T08:37:16.273Z,66.80
2023-03-03T08:39:44.250Z,57.97
2023-03-03T08:42:12.984Z,71.07
2023-03-03T08:44:43.470Z,51.13
2023-03-03T08:47:11.527Z,47.67
2023-03-03T08:49:40.004Z,58.65
2023-03-03T08:52:09.046Z,53.58
2023-03-03T08:54:37.009Z,46.20
2023-03-03T08:57:06.131Z,57.05
2023-03-03T08:59:37.835Z,58.47
2023-03-03T09:02:08.405Z,47.80
2023-03-03T09:04:36.891Z,53.15
2023-03-03T09:07:05.038Z,43.47
2023-03-03T09:09:32.996Z,36.58
2023-03-03T09:12:09.113Z,50.17
2023-03-03T09:14:39.066Z,45.30
2023-03-03T09:17:25.973Z,43.38
2023-03-03T09:19:56.853Z,38.92
2023-03-03T09:22:27.217Z,47.85
2023-03-03T09:25:00.161Z,42.78
2023-03-03T09:27:38.275Z,42.30
2023-03-03T09:30:27.742Z,38.17
2023-03-03T09:32:58.160Z,44.40
2023-03-03T09:35:37.473Z,46.65
2023-03-03T09:38:21.625Z,53.38
2023-03-03T09:41:03.984Z,70.35
2023-03-03T09:43:40.420Z,45.47
2023-03-03T09:46:21.054Z,37.72
2023-03-03T09:49:01.376Z,35.47
2023-03-03T09:51:49.309Z,38.85
2023-03-03T09:54:29.372Z,43.08
2023-03-03T09:57:07.159Z,39.95
2023-03-03T09:59:48.436Z,43.05
2023-03-03T10:02:36.992Z,42.17
2023-03-03T10:05:17.240Z,43.28
2023-03-03T10:07:56.252Z,43.13
2023-03-03T10:10:43.482Z,43.17
2023-03-03T10:13:22.055Z,41.13
2023-03-03T10:16:02.526Z,46.47
2023-03-03T10:18:36.006Z,42.70
2023-03-03T10:21:11.768Z,49.42
2023-03-03T10:23:59.004Z,48.80
2023-03-03T10:27:01.319Z,45.80
2023-03-03T10:29:44.886Z,48.30
2023-03-03T10:32:36.716Z,44.38
2023-03-03T10:35:24.203Z,54.95
2023-03-03T10:38:06.997Z,42.15
2023-03-03T10:40:39.977Z,38.05
2023-03-03T10:43:31.662Z,40.17
2023-03-03T10:46:23.511Z,56.47
2023-03-03T10:49:03.902Z,45.92
2023-03-03T10:51:45.218Z,53.65
2023-03-03T10:54:32.274Z,51.15
2023-03-03T10:57:08.571Z,46.25
2023-03-03T10:59:54.978Z,44.28
2023-03-03T11:02:27.894Z,39.28
2023-03-03T11:05:13.317Z,42.65
2023-03-03T11:07:45.921Z,41.85
2023-03-03T11:10:35.702Z,37.50
2023-03-03T11:13:16.484Z,42.28
2023-03-03T11:16:23.458Z,51.00
2023-03-03T11:19:06.663Z,34.58
2023-03-03T11:21:42.822Z,42.95
2023-03-03T11:24:27.781Z,39.08
2023-03-03T11:27:18.850Z,38.60
2023-03-03T11:30:02.587Z,39.83
2023-03-03T11:32:42.774Z,41.08
2023-03-03T11:35:23.304Z,49.63
2023-03-03T11:38:03.879Z,37.22
2023-03-03T11:40:41.084Z,32.90
2023-03-03T11:43:33.932Z,34.90
2023-03-03T11:46:07.939Z,37.20
2023-03-03T11:48:42.009Z,39.05
2023-03-03T11:51:14.181Z,39.78
2023-03-03T11:53:53.957Z,38.40
2023-03-03T11:56:25.716Z,32.45
2023-03-03T11:59:06.380Z,26.63
2023-03-03T12:01:40.363Z,41.13
2023-03-03T12:04:13.641Z,27.13
2023-03-03T12:07:18.537Z,35.25
2023-03-03T12:09:58.241Z,28.55
2023-03-03T12:12:33.482Z,28.58
2023-03-03T12:15:16.723Z,35.55
2023-03-03T12:18:14.060Z,24.13
2023-03-03T12:20:51.182Z,29.52
2023-03-03T12:23:37.276Z,28.58
2023-03-03T12:26:10.024Z,30.67
2023-03-03T12:28:42.027Z,25.40
2023-03-03T12:31:33.228Z,24.80
2023-03-03T12:34:06.284Z,30.00
2023-03-03T12:36:59.227Z,27.25
2023-03-03T12:39:41.277Z,31.00
2023-03-03T12:42:17.850Z,28.40
2023-03-03T12:44:52.105Z,28.52
2023-03-03T12:47:28.779Z,30.35
2023-03-03T12:50:12.305Z,22.90
2023-03-03T12:52:52.165Z,27.73
2023-03-03T12:55:29.714Z,27.30
2023-03-03T12:58:10.087Z,24.65
2023-03-03T13:00:51.039Z,32.90
2023-03-03T13:03:37.076Z,25.73
2023-03-03T13:06:20.008Z,24.45
2023-03-03T13:09:03.074Z,18.77
2023-03-03T13:11:53.043Z,26.65
2023-03-03T13:14:34.031Z,23.33
2023-03-03T13:17:10.588Z,24.65
2023-03-03T13:19:44.072Z,22.73
2023-03-03T13:22:18.639Z,23.48
2023-03-03T13:24:59.458Z,23.75
2023-03-03T13:27:33.275Z,18.48
2023-03-03T13:30:04.633Z,24.67
2023-03-03T13:32:42.404Z,18.23
2023-03-03T13:35:25.409Z,21.75
2023-03-03T13:37:56.553Z,25.00
2023-03-03T13:40:27.886Z,22.00
2023-03-03T13:43:01.741Z,17.10
2023-03-03T13:45:37.649Z,30.23
2023-03-03T13:48:16.268Z,23.55
2023-03-03T13:50:52.010Z,14.02
2023-03-03T13:53:43.414Z,16.17
2023-03-03T13:56:22.612Z,16.95
2023-03-03T13:59:00.413Z,16.20
2023-03-03T14:01:33.936Z,15.27
2023-03-03T14:04:07.566Z,20.58
2023-03-03T14:06:38.863Z,16.20
2023-03-03T14:09:23.660Z,16.35
2023-03-03T14:11:57.644Z,15.65
2023-03-03T14:14:48.146Z,17.20
2023-03-03T14:17:24.482Z,18.63
2023-03-03T14:20:02.279Z,13.80
2023-03-03T14:22:43.246Z,18.02
2023-03-03T14:25:12.978Z,9.60
2023-03-03T14:28:01.186Z,22.55
2023-03-03T14:30:35.697Z,18.13
2023-03-03T14:33:20.964Z,14.30
2023-03-03T14:36:03.010Z,15.40
2023-03-03T14:38:51.688Z,14.90
2023-03-03T14:41:23.517Z,17.13
2023-03-03T14:44:01.168Z,15.40
2023-03-03T14:46:39.628Z,14.82
2023-03-03T14:49:14.806Z,17.70
2023-03-03T14:51:46.389Z,17.60
2023-03-03T14:54:29.443Z,15.40
2023-03-03T14:57:01.319Z,17.67
2023-03-03T14:59:29.873Z,16.30
2023-03-03T15:02:28.363Z,15.60
2023-03-03T15:05:14.933Z,24.02
2023-03-03T15:07:43.487Z,20.80
2023-03-03T15:10:14.096Z,19.98
2023-03-03T15:12:43.438Z,35.33
2023-03-03T15:15:20.519Z,23.27
2023-03-03T15:17:58.015Z,36.95
2023-03-03T15:20:35.526Z,27.70
2023-03-03T15:23:31.709Z,38.65
2023-03-03T15:26:05.550Z,37.90
2023-03-03T15:28:46.571Z,50.10
2023-03-03T15:31:30.292Z,29.48
2023-03-03T15:34:05.235Z,30.40
2023-03-03T15:36:40.281Z,28.35
2023-03-03T15:39:20.899Z,26.45
2023-03-03T15:41:59.856Z,20.15
2023-03-03T15:44:34.985Z,26.00
2023-03-03T15:47:28.099Z,24.15
2023-03-03T15:50:07.220Z,35.08
2023-03-03T15:52:46.533Z,33.42
2023-03-03T15:55:27.379Z,27.95
2023-03-03T15:58:08.290Z,25.23
2023-03-03T16:00:42.139Z,38.20
2023-03-03T16:03:15.301Z,23.55
2023-03-03T16:05:53.439Z,27.95
2023-03-03T16:08:25.915Z,24.15
2023-03-03T16:11:04.920Z,25.77
2023-03-03T16:13:47.487Z,26.88
2023-03-03T16:16:26.562Z,23.90
2023-03-03T16:19:05.960Z,22.60
2023-03-03T16:21:55.724Z,27.65
2023-03-03T16:24:36.167Z,23.08
2023-03-03T16:27:15.791Z,30.25
2023-03-03T16:29:53.721Z,22.13
2023-03-03T16:32:28.888Z,20.50
2023-03-03T16:34:58.856Z,23.63
2023-03-03T16:37:32.768Z,21.48
2023-03-03T16:40:08.531Z,22.15
2023-03-03T16:42:36.479Z,26.48
2023-03-03T16:45:22.776Z,30.23
2023-03-03T16:48:20.980Z,27.58
2023-03-03T16:50:57.150Z,22.83
2023-03-03T16:53:44.054Z,32.22
2023-03-03T16:56:19.183Z,27.50
2023-03-03T16:59:00.038Z,27.58
2023-03-03T17:01:40.362Z,28.30
2023-03-03T17:04:15.363Z,25.50
2023-03-03T17:06:51.054Z,20.15
2023-03-03T17:09:43.177Z,31.17
2023-03-03T17:12:52.881Z,31.02
2023-03-03T17:15:39.854Z,29.80
2023-03-03T17:18:15.647Z,25.85
2023-03-03T17:20:50.053Z,30.63
2023-03-03T17:23:40.774Z,22.67
2023-03-03T17:26:18.032Z,26.65
2023-03-03T17:28:55.676Z,29.90
2023-03-03T17:31:34.973Z,31.65
2023-03-03T17:34:31.532Z,26.95
2023-03-03T17:37:09.756Z,30.45
2023-03-03T17:40:04.688Z,30.35
2023-03-03T17:42:42.157Z,28.23
2023-03-03T17:45:13.055Z,26.42
2023-03-03T17:48:27.039Z,24.83
2023-03-03T17:51:11.033Z,34.17
2023-03-03T17:53:51.939Z,37.88
2023-03-03T17:56:24.989Z,23.77
2023-03-03T17:59:31.572Z,30.20
2023-03-03T18:02:48.988Z,30.67
2023-03-03T18:05:33.064Z,27.77
2023-03-03T18:08:22.617Z,24.73
2023-03-03T18:11:27.710Z,43.33
2023-03-03T18:14:11.072Z,24.40
2023-03-03T18:16:55.139Z,26.65
2023-03-03T18:19:43.813Z,25.42
2023-03-03T18:22:14.681Z,23.50
2023-03-03T18:25:00.788Z,29.63
2023-03-03T18:27:35.208Z,25.38
2023-03-03T18:30:21.363Z,25.45
2023-03-03T18:33:10.636Z,28.48
2023-03-03T18:35:40.624Z,28.00
2023-03-03T18:38:39.226Z,34.28
2023-03-03T18:41:11.961Z,27.67
2023-03-03T18:43:54.709Z,33.10
2023-03-03T18:46:54.839Z,41.15
2023-03-03T18:49:53.543Z,28.50
2023-03-03T18:52:25.920Z,26.05
2023-03-03T18:55:29.767Z,34.47
2023-03-03T18:58:33.870Z,41.70
2023-03-03T19:01:20.926Z,41.58
2023-03-03T19:04:13.330Z,35.10
2023-03-03T19:07:16.706Z,25.38
2023-03-03T19:09:51.492Z,30.02
2023-03-03T19:12:40.223Z,38.28
2023-03-03T19:15:56.906Z,33.15
2023-03-03T19:18:28.202Z,35.72
2023-03-03T19:20:59.678Z,28.55
2023-03-03T19:23:47.431Z,28.05
2023-03-03T19:26:57.375Z,33.50
2023-03-03T19:29:46.075Z,21.42
2023-03-03T19:32:30.408Z,41.38
2023-03-03T19:35:33.839Z,37.70
2023-03-03T19:38:12.365Z,26.27
2023-03-03T19:40:49.037Z,32.53
2023-03-03T19:43:27.320Z,40.05
2023-03-03T19:46:07.651Z,27.35
2023-03-03T19:48:41.560Z,30.20
2023-03-03T19:51:19.386Z,33.15
2023-03-03T19:53:56.613Z,29.85
2023-03-03T19:56:34.914Z,25.85
2023-03-03T19:59:15.597Z,24.10
2023-03-03T20:02:16.889Z,25.70
2023-03-03T20:04:59.923Z,23.80
2023-03-03T20:07:35.686Z,30.50
2023-03-03T20:10:35.465Z,31.98
2023-03-03T20:13:13.630Z,30.50
2023-03-03T20:15:52.831Z,26.27
2023-03-03T20:19:09.479Z,37.22
2023-03-03T20:21:43.055Z,34.22
2023-03-03T20:24:42.389Z,33.42
2023-03-03T20:27:16.534Z,43.42
2023-03-03T20:30:12.492Z,31.60
2023-03-03T20:32:55.727Z,35.00
2023-03-03T20:35:33.992Z,36.08
2023-03-03T20:38:12.851Z,37.08
2023-03-03T20:40:49.389Z,32.15
2023-03-03T20:43:34.990Z,39.95
2023-03-03T20:46:14.419Z,30.90
2023-03-03T20:49:12.706Z,31.63
2023-03-03T20:51:47.318Z,38.72
2023-03-03T20:54:24.828Z,38.28
2023-03-03T20:57:03.394Z,45.40
2023-03-03T20:59:37.156Z,24.65
2023-03-03T21:02:20.483Z,36.38
2023-03-03T21:05:09.511Z,35.55
2023-03-03T21:07:41.133Z,33.33
2023-03-03T21:10:16.525Z,33.00
2023-03-03T21:12:46.088Z,37.60
2023-03-03T21:15:28.939Z,53.50
2023-03-03T21:17:58.230Z,301.67
2023-03-03T21:20:30.344Z,81.95
2023-03-03T21:22:59.701Z,54.58
2023-03-03T21:25:48.113Z,31.15
2023-03-03T21:28:24.009Z,23.10
2023-03-03T21:31:07.496Z,22.08
2023-03-03T21:33:57.724Z,31.63
2023-03-03T21:36:46.212Z,31.67
2023-03-03T21:39:23.161Z,30.30
2023-03-03T21:41:52.988Z,32.83
2023-03-03T21:44:34.264Z,30.40
2023-03-03T21:47:03.000Z,37.15
2023-03-03T21:49:30.988Z,25.00
2023-03-03T21:51:59.481Z,41.20
2023-03-03T21:54:27.604Z,33.72
2023-03-03T21:56:55.572Z,32.33
2023-03-03T21:59:23.641Z,26.90
2023-03-03T22:01:53.011Z,24.90
2023-03-03T22:04:21.291Z,36.83
2023-03-03T22:06:49.372Z,27.23
2023-03-03T22:09:17.518Z,33.60
2023-03-03T22:11:45.912Z,36.47
2023-03-03T22:14:14.005Z,28.92
2023-03-03T22:16:42.615Z,45.42
2023-03-03T22:19:12.045Z,28.35
2023-03-03T22:21:41.306Z,35.75
2023-03-03T22:24:10.226Z,45.22
2023-03-03T22:26:38.271Z,32.35
2023-03-03T22:29:07.149Z,38.05
2023-03-03T22:31:35.192Z,35.28
2023-03-03T22:34:04.544Z,43.97
2023-03-03T22:36:34.030Z,37.97
2023-03-03T22:39:02.043Z,40.53
2023-03-03T22:41:30.070Z,33.53
2023-03-03T22:43:57.982Z,43.00
2023-03-03T22:46:26.148Z,45.60
2023-03-03T22:48:54.143Z,44.50
2023-03-03T22:51:22.510Z,31.63
2023-03-03T22:53:51.796Z,33.15
2023-03-03T22:56:19.854Z,41.67
2023-03-03T22:58:47.919Z,42.30
2023-03-03T23:01:16.448Z,41.05
2023-03-03T23:03:44.422Z,31.05
2023-03-03T23:06:12.439Z,39.35
2023-03-03T23:08:40.423Z,42.83
2023-03-03T23:11:09.831Z,32.45
2023-03-03T23:13:37.978Z,43.50
2023-03-03T23:16:06.840Z,33.17
2023-03-03T23:18:34.980Z,39.00
2023-03-03T23:21:02.968Z,45.45
2023-03-03T23:23:31.335Z,37.75
2023-03-03T23:25:59.263Z,53.28
2023-03-03T23:28:28.620Z,36.90
2023-03-03T23:30:56.673Z,36.22
2023-03-03T23:33:24.643Z,47.58
2023-03-03T23:35:52.935Z,36.40
2023-03-03T23:38:20.957Z,30.25
2023-03-03T23:40:48.920Z,29.48
2023-03-03T23:43:16.866Z,37.85
2023-03-03T23:45:46.243Z,43.42
2023-03-03T23:48:14.222Z,40.85
2023-03-03T23:50:42.252Z,36.60
2023-03-03T23:53:10.283Z,34.47
2023-03-03T23:55:38.291Z,31.48
2023-03-03T23:58:06.734Z,29.98
